Time;durP1;ratioP1;P1;durP2;ratioP2;P2;SDS_P1;SDS_P2;PMS_P1;PMS_P2;Temp;Humidity;BMP_temperature;BMP_pressure;BME280_temperature;BME280_humidity;BME280_pressure;Samples;Min_cycle;Max_cycle;Signal;HPM_P1;HPM_P2
2022/11/14 00:01:07;;;;;;;0.50;0.10;;;8.10;99.90;;;;;;4979549;28;20451;-80
2022/11/14 00:03:35;;;;;;;0.50;0.10;;;8.20;99.90;;;;;;4981826;28;20533;-80
2022/11/14 00:06:06;;;;;;;0.50;0.10;;;8.20;99.90;;;;;;4998056;28;20518;-79
2022/11/14 00:08:34;;;;;;;0.50;0.10;;;8.20;99.90;;;;;;4999214;28;20494;-80
2022/11/14 00:11:04;;;;;;;0.50;0.10;;;8.20;99.90;;;;;;4989806;28;20482;-79
2022/11/14 00:13:31;;;;;;;0.50;0.10;;;8.10;99.90;;;;;;4995116;28;20454;-79
2022/11/14 00:15:59;;;;;;;0.50;0.10;;;8.10;99.90;;;;;;4981056;28;20486;-79
2022/11/14 00:18:27;;;;;;;0.50;0.10;;;8.10;99.90;;;;;;4976211;28;20478;-80
2022/11/14 00:20:56;;;;;;;0.50;0.10;;;8.00;99.90;;;;;;4976309;28;20439;-80
2022/11/14 00:23:24;;;;;;;0.50;0.10;;;8.00;99.90;;;;;;4976561;28;20972;-82
2022/11/14 00:25:52;;;;;;;0.50;0.10;;;7.90;99.90;;;;;;4985811;28;20546;-80
2022/11/14 00:28:22;;;;;;;0.50;0.10;;;;;;;;;;4969550;28;20457;-81
2022/11/14 00:30:50;;;;;;;0.50;0.10;;;7.90;99.90;;;;;;4981436;28;20513;-80
2022/11/14 00:33:20;;;;;;;0.50;0.10;;;7.90;99.90;;;;;;4968365;29;20514;-79
2022/11/14 00:35:52;;;;;;;0.50;0.10;;;7.90;99.90;;;;;;4991760;28;20454;-80
2022/11/14 00:38:21;;;;;;;0.50;0.10;;;7.80;99.90;;;;;;4998151;28;20436;-80
2022/11/14 00:40:49;;;;;;;0.50;0.10;;;7.80;99.90;;;;;;4994334;28;20473;-80
2022/11/14 00:43:17;;;;;;;0.50;0.10;;;7.80;99.90;;;;;;4984497;28;20438;-80
2022/11/14 00:45:47;;;;;;;0.50;0.10;;;7.80;99.90;;;;;;4965058;28;20530;-82
2022/11/14 00:48:15;;;;;;;0.50;0.10;;;7.80;99.90;;;;;;4968399;28;20463;-83
2022/11/14 00:50:44;;;;;;;0.50;0.10;;;7.70;99.90;;;;;;4962982;28;20459;-81
2022/11/14 00:53:11;;;;;;;0.50;0.10;;;7.70;99.90;;;;;;4963918;28;20478;-80
2022/11/14 00:55:40;;;;;;;0.50;0.10;;;7.70;99.90;;;;;;4980806;28;20472;-81
2022/11/14 00:58:07;;;;;;;0.50;0.10;;;7.70;99.90;;;;;;4981053;28;20453;-81
2022/11/14 05:02:48;;;;;;;0.50;0.10;;;6.50;99.90;;;;;;5000962;23;20527;-79
2022/11/14 05:05:16;;;;;;;0.50;0.10;;;6.40;99.90;;;;;;4974994;28;20522;-79
2022/11/14 05:07:44;;;;;;;0.87;0.87;;;6.40;99.90;;;;;;4963614;28;20498;-80
2022/11/14 05:10:11;;;;;;;0.50;0.10;;;6.40;99.90;;;;;;4966395;29;20456;-81
2022/11/14 05:12:39;;;;;;;0.50;0.10;;;6.40;99.90;;;;;;4974202;28;20510;-80
2022/11/14 05:15:08;;;;;;;0.50;0.10;;;6.40;99.90;;;;;;4975144;28;20456;-81
2022/11/14 05:17:37;;;;;;;0.50;0.10;;;;;;;;;;4981132;28;20470;-81
2022/11/14 05:20:07;;;;;;;0.50;0.10;;;;;;;;;;4964060;29;20433;-80
2022/11/14 05:22:34;;;;;;;1.17;1.17;;;6.50;99.90;;;;;;4963437;29;20459;-79
2022/11/14 05:25:02;;;;;;;0.50;0.10;;;6.40;99.90;;;;;;4966094;29;20443;-80
2022/11/14 05:27:30;;;;;;;0.50;0.10;;;6.60;99.90;;;;;;4962959;29;20778;-79
2022/11/14 05:29:58;;;;;;;0.50;0.10;;;6.60;99.90;;;;;;4962428;29;20462;-80
2022/11/14 05:32:26;;;;;;;0.50;0.10;;;6.60;99.90;;;;;;4961218;29;20545;-80
2022/11/14 05:34:54;;;;;;;0.50;0.10;;;6.70;99.90;;;;;;4942233;29;20464;-80
2022/11/14 05:37:24;;;;;;;0.50;0.10;;;6.80;99.90;;;;;;4959023;28;20475;-81
2022/11/14 05:39:52;;;;;;;0.50;0.10;;;6.80;99.90;;;;;;4967735;28;20448;-80
2022/11/14 05:42:20;;;;;;;0.50;0.10;;;6.90;99.90;;;;;;4973627;28;20455;-81
2022/11/14 05:44:48;;;;;;;0.50;0.10;;;6.90;99.90;;;;;;4965412;29;20444;-80
2022/11/14 05:47:16;;;;;;;0.50;0.20;;;6.90;99.90;;;;;;4962536;29;20471;-82
2022/11/14 05:49:44;;;;;;;1.00;0.90;;;6.90;99.90;;;;;;4974525;28;20454;-81
2022/11/14 05:52:12;;;;;;;0.50;0.10;;;6.90;99.90;;;;;;4976556;28;20485;-80
2022/11/14 05:54:41;;;;;;;1.27;1.17;;;6.80;99.90;;;;;;4960597;29;20455;-80
2022/11/14 05:57:09;;;;;;;0.50;0.10;;;6.90;99.90;;;;;;4962746;28;20930;-80
2022/11/14 05:59:37;;;;;;;0.50;0.10;;;6.90;99.90;;;;;;4989355;28;20445;-81
2022/11/14 06:02:05;;;;;;;0.50;0.10;;;6.90;99.90;;;;;;4959370;28;1051499;-80
2022/11/14 06:04:33;;;;;;;0.50;0.10;;;7.00;99.90;;;;;;4991076;28;20203;-79
2022/11/14 06:07:01;;;;;;;0.50;0.10;;;7.00;99.90;;;;;;4980501;28;20573;-81
2022/11/14 06:09:29;;;;;;;0.50;0.10;;;7.10;99.90;;;;;;4977652;28;20944;-81
2022/11/14 06:11:59;;;;;;;0.77;0.77;;;7.10;99.90;;;;;;4966710;29;20463;-81
2022/11/14 06:14:27;;;;;;;0.50;0.10;;;7.00;99.90;;;;;;4964411;29;20451;-81
2022/11/14 06:16:55;;;;;;;0.50;0.10;;;7.00;99.90;;;;;;4965122;29;20443;-81
2022/11/14 06:19:23;;;;;;;0.50;0.20;;;7.00;99.90;;;;;;4974199;28;20802;-81
2022/11/14 06:21:50;;;;;;;2.47;2.37;;;6.20;99.90;;;;;;4987240;28;20525;-80
2022/11/14 06:24:19;;;;;;;0.50;0.10;;;7.00;99.90;;;;;;4975442;28;20451;-80
2022/11/14 06:26:46;;;;;;;0.50;0.10;;;6.90;99.90;;;;;;4973729;28;20451;-80
2022/11/14 06:29:16;;;;;;;0.50;0.10;;;;;;;;;;4986902;28;20471;-80
2022/11/14 06:31:44;;;;;;;0.50;0.10;;;7.00;99.90;;;;;;4970451;28;20470;-81
2022/11/14 06:34:12;;;;;;;0.50;0.20;;;7.00;99.90;;;;;;4965298;28;20479;-81
2022/11/14 06:36:40;;;;;;;0.50;0.10;;;7.00;99.90;;;;;;4968318;28;20481;-81
2022/11/14 06:39:08;;;;;;;0.50;0.10;;;7.00;99.90;;;;;;4968991;28;20478;-81
2022/11/14 06:41:36;;;;;;;0.50;0.10;;;7.00;99.90;;;;;;4959406;28;20987;-79
2022/11/14 06:44:07;;;;;;;0.90;0.70;;;7.00;99.90;;;;;;4962842;28;20470;-80
2022/11/14 06:46:36;;;;;;;0.50;0.10;;;7.10;99.90;;;;;;4961064;29;20552;-79
2022/11/14 06:49:04;;;;;;;0.50;0.10;;;7.10;99.90;;;;;;4972340;28;20516;-79
2022/11/14 06:51:32;;;;;;;0.50;0.10;;;7.10;99.90;;;;;;4981324;28;20567;-81
2022/11/14 06:54:00;;;;;;;2.00;1.63;;;6.80;99.90;;;;;;4968406;28;21040;-80
2022/11/14 06:56:28;;;;;;;0.50;0.23;;;7.10;99.90;;;;;;4971170;28;20442;-80
2022/11/14 06:58:56;;;;;;;1.63;1.53;;;;;;;;;;4988379;28;20457;-81
2022/11/14 07:01:25;;;;;;;0.50;0.10;;;7.10;99.90;;;;;;4965983;28;20493;-80
2022/11/14 07:03:56;;;;;;;0.50;0.10;;;7.20;99.90;;;;;;4965578;28;20519;-82
2022/11/14 07:06:26;;;;;;;0.50;0.17;;;7.20;99.90;;;;;;4965839;28;20519;-82
2022/11/14 07:08:55;;;;;;;0.50;0.10;;;7.20;99.90;;;;;;4973043;28;20471;-82
2022/11/14 07:11:26;;;;;;;0.70;0.50;;;7.20;99.90;;;;;;4983938;28;20538;-82
2022/11/14 07:13:56;;;;;;;0.50;0.20;;;7.30;99.90;;;;;;4967011;28;20517;-82
2022/11/14 07:16:28;;;;;;;0.60;0.50;;;7.20;99.90;;;;;;4977587;28;20486;-82
2022/11/14 07:18:58;;;;;;;0.70;0.47;;;;;;;;;;4973998;28;20495;-80
2022/11/14 07:21:27;;;;;;;5.03;2.13;;;7.20;99.90;;;;;;4981360;28;20472;-82
2022/11/14 07:23:55;;;;;;;0.50;0.20;;;7.20;99.90;;;;;;4979035;28;20450;-82
2022/11/14 07:26:24;;;;;;;0.50;0.10;;;7.20;99.90;;;;;;4982759;28;20464;-79
2022/11/14 07:28:52;;;;;;;0.50;0.10;;;7.20;99.90;;;;;;4982747;28;20430;-83
2022/11/14 07:31:26;;;;;;;0.60;0.50;;;7.20;99.90;;;;;;4983083;28;20541;-82
2022/11/14 07:33:54;;;;;;;4.43;4.23;;;7.20;99.90;;;;;;4969808;28;20510;-83
2022/11/14 07:36:24;;;;;;;0.50;0.20;;;7.20;99.90;;;;;;4967120;28;20544;-79
2022/11/14 07:38:52;;;;;;;0.50;0.30;;;7.20;99.90;;;;;;4983367;28;20538;-80
2022/11/14 07:41:20;;;;;;;2.50;1.90;;;7.20;99.90;;;;;;4985643;28;20474;-82
2022/11/14 07:43:48;;;;;;;0.50;0.10;;;7.20;99.90;;;;;;4976221;28;20792;-82
2022/11/14 07:46:17;;;;;;;0.60;0.40;;;7.30;99.90;;;;;;4980467;28;20451;-83
2022/11/14 07:48:45;;;;;;;1.90;0.73;;;7.30;99.90;;;;;;4989971;28;20442;-84
2022/11/14 07:51:16;;;;;;;3.10;2.97;;;7.30;99.90;;;;;;4987403;28;21012;-84
2022/11/14 07:53:45;;;;;;;0.50;0.20;;;7.30;99.90;;;;;;4980006;28;20478;-83
2022/11/14 07:56:15;;;;;;;0.50;0.20;;;;;;;;;;4973227;28;20478;-84
2022/11/14 07:58:44;;;;;;;11.07;9.97;;;7.30;99.90;;;;;;4978511;28;20450;-84
2022/11/14 08:01:13;;;;;;;0.50;0.10;;;7.30;99.90;;;;;;4973179;29;20494;-82
2022/11/14 08:03:42;;;;;;;1.13;1.03;;;7.30;99.90;;;;;;4969915;28;20450;-84
2022/11/14 08:06:15;;;;;;;0.50;0.10;;;7.30;99.90;;;;;;4952569;28;20927;-83
2022/11/14 08:08:45;;;;;;;0.50;0.10;;;7.30;99.90;;;;;;4978745;28;20554;-82
2022/11/14 08:11:13;;;;;;;2.10;1.50;;;7.30;99.90;;;;;;4971633;28;20486;-83
2022/11/14 08:14:01;;;;;;;0.50;0.10;;;7.30;99.90;;;;;;4979602;28;20894;-82
2022/11/14 08:16:28;;;;;;;0.50;0.10;;;7.50;99.90;;;;;;4978640;28;20522;-77
2022/11/14 08:18:56;;;;;;;0.50;0.10;;;7.50;99.90;;;;;;4979100;28;20452;-80
2022/11/14 08:21:24;;;;;;;0.60;0.50;;;5.80;99.90;;;;;;4979333;28;20527;-79
2022/11/14 08:23:54;;;;;;;0.60;0.30;;;7.60;99.90;;;;;;4975143;28;20498;-80
2022/11/14 08:26:22;;;;;;;6.10;5.70;;;7.50;99.90;;;;;;4954303;29;20455;-80
2022/11/14 08:28:52;;;;;;;0.50;0.20;;;7.50;99.90;;;;;;4967173;28;20502;-78
2022/11/14 08:31:21;;;;;;;0.50;0.10;;;7.50;99.90;;;;;;4986726;28;20470;-79
2022/11/14 08:33:51;;;;;;;0.50;0.10;;;7.90;99.90;;;;;;4981032;28;20470;-79
2022/11/14 08:36:19;;;;;;;0.57;0.30;;;7.60;99.90;;;;;;4979795;28;21003;-78
2022/11/14 08:38:47;;;;;;;0.90;0.90;;;7.60;99.90;;;;;;4981481;28;20459;-79
2022/11/14 08:41:20;;;;;;;0.50;0.10;;;;;;;;;;4974969;28;20467;-79
2022/11/14 08:43:49;;;;;;;0.50;0.10;;;7.70;99.90;;;;;;4995894;28;20430;-79
2022/11/14 08:46:17;;;;;;;0.50;0.10;;;7.70;99.90;;;;;;4995747;28;20458;-78
2022/11/14 08:48:45;;;;;;;0.50;0.10;;;7.80;99.90;;;;;;4985411;28;20459;-79
2022/11/14 08:51:14;;;;;;;0.50;0.20;;;;;;;;;;4995363;28;20462;-84
2022/11/14 08:53:42;;;;;;;0.50;0.10;;;7.80;99.90;;;;;;4998443;28;20462;-82
2022/11/14 08:56:11;;;;;;;0.60;0.40;;;7.80;99.90;;;;;;4989641;28;20723;-84
2022/11/14 08:58:40;;;;;;;2.30;1.20;;;7.80;99.90;;;;;;4986496;28;20442;-82
2022/11/14 09:01:10;;;;;;;0.50;0.10;;;7.70;99.90;;;;;;4976088;28;20546;-83
2022/11/14 09:03:38;;;;;;;0.50;0.10;;;7.70;99.90;;;;;;4976491;28;20450;-84
2022/11/14 09:06:06;;;;;;;0.50;0.10;;;7.70;99.90;;;;;;4987143;28;20451;-81
2022/11/14 09:08:34;;;;;;;0.50;0.10;;;7.70;99.90;;;;;;4979807;28;20471;-82
2022/11/14 09:11:05;;;;;;;0.50;0.10;;;7.70;99.90;;;;;;4979541;28;20483;-81
2022/11/14 09:13:36;;;;;;;0.50;0.20;;;7.80;99.90;;;;;;4993876;28;20464;-81
2022/11/14 09:16:06;;;;;;;0.60;0.40;;;7.70;99.90;;;;;;4988141;28;20877;-81
2022/11/14 09:18:34;;;;;;;0.90;0.90;;;7.70;99.90;;;;;;4984221;28;20803;-81
2022/11/14 09:21:03;;;;;;;0.50;0.20;;;7.70;99.90;;;;;;4985545;28;20528;-82
2022/11/14 09:23:31;;;;;;;0.50;0.10;;;7.80;99.90;;;;;;4989239;28;20438;-85
2022/11/14 09:26:04;;;;;;;0.50;0.10;;;7.90;99.90;;;;;;4997640;28;20422;-84
2022/11/14 09:28:32;;;;;;;1.27;1.17;;;;;;;;;;4992684;28;20443;-80
2022/11/14 09:31:01;;;;;;;0.90;0.73;;;8.00;99.90;;;;;;4983893;28;20533;-82
2022/11/14 09:33:30;;;;;;;4.77;4.57;;;8.10;99.90;;;;;;4982002;28;20451;-80
2022/11/14 09:36:00;;;;;;;0.50;0.10;;;8.20;99.90;;;;;;4983136;28;20482;-82
2022/11/14 09:38:29;;;;;;;0.50;0.10;;;8.20;99.90;;;;;;4983644;28;20489;-83
2022/11/14 09:41:23;;;;;;;0.70;0.70;;;8.30;99.90;;;;;;4982839;28;20477;-83
2022/11/14 09:44:22;;;;;;;0.50;0.20;;;8.30;99.90;;;;;;4983451;28;20829;-82
2022/11/14 09:46:57;;;;;;;0.50;0.10;;;8.30;99.90;;;;;;4968176;28;20545;-82
2022/11/14 09:49:32;;;;;;;0.50;0.10;;;8.40;99.90;;;;;;4981189;28;20445;-80
2022/11/14 09:52:08;;;;;;;0.50;0.10;;;8.40;99.90;;;;;;4967471;28;20473;-83
2022/11/14 09:54:44;;;;;;;1.17;1.07;;;9.50;99.90;;;;;;4973568;29;20458;-82
2022/11/14 09:57:16;;;;;;;0.50;0.20;;;8.40;99.90;;;;;;4961444;28;20450;-82
2022/11/14 09:59:44;;;;;;;0.50;0.10;;;8.50;99.90;;;;;;4975100;28;20451;-82
2022/11/14 10:02:43;;;;;;;0.50;0.10;;;8.50;99.90;;;;;;4962731;28;20854;-82
2022/11/14 10:05:33;;;;;;;0.87;0.87;;;8.50;99.90;;;;;;4967069;28;20450;-82
2022/11/14 10:08:19;;;;;;;3.50;1.40;;;8.60;99.90;;;;;;4975427;28;20461;-83
2022/11/14 10:10:53;;;;;;;0.50;0.20;;;8.60;99.90;;;;;;4974018;28;20771;-84
2022/11/14 10:13:44;;;;;;;13.83;12.57;;;8.70;99.90;;;;;;4960004;28;20838;-82
2022/11/14 10:16:18;;;;;;;0.50;0.10;;;9.00;99.90;;;;;;4974515;28;20507;-82
2022/11/14 10:19:03;;;;;;;2.20;1.60;;;9.00;99.90;;;;;;4992446;28;20434;-81
2022/11/14 10:21:46;;;;;;;0.50;0.10;;;8.90;99.90;;;;;;4979724;28;20465;-81
2022/11/14 10:24:36;;;;;;;0.50;0.10;;;9.00;99.90;;;;;;4988854;28;20441;-80
2022/11/14 10:27:07;;;;;;;0.50;0.10;;;9.20;99.90;;;;;;4994418;28;20523;-81
2022/11/14 10:29:47;;;;;;;1.50;1.40;;;9.30;99.90;;;;;;4975694;28;20548;-81
2022/11/14 10:32:27;;;;;;;0.97;0.93;;;9.40;99.90;;;;;;4978468;28;21052;-81
2022/11/14 10:35:02;;;;;;;0.50;0.20;;;9.40;99.90;;;;;;4967580;28;20475;-81
2022/11/14 10:37:37;;;;;;;0.50;0.30;;;9.50;99.90;;;;;;4986719;28;20456;-81
2022/11/14 10:40:16;;;;;;;0.50;0.10;;;9.50;99.90;;;;;;4972631;28;20498;-82
2022/11/14 10:42:48;;;;;;;0.50;0.10;;;9.60;99.90;;;;;;4976398;28;20479;-81
2022/11/14 10:45:23;;;;;;;0.60;0.47;;;9.60;99.90;;;;;;4977039;29;20439;-81
2022/11/14 10:47:56;;;;;;;0.50;0.10;;;9.70;99.90;;;;;;4985760;28;20728;-81
2022/11/14 10:50:28;;;;;;;0.70;0.40;;;9.70;99.90;;;;;;4980970;28;20454;-81
2022/11/14 10:53:04;;;;;;;0.77;0.57;;;9.60;99.90;;;;;;4990963;28;20437;-82
2022/11/14 10:55:32;;;;;;;0.93;0.93;;;9.60;99.90;;;;;;4996034;28;20485;-80
2022/11/14 10:58:21;;;;;;;0.50;0.10;;;9.90;99.90;;;;;;4980286;28;20466;-82
2022/11/14 11:00:49;;;;;;;0.50;0.10;;;9.70;99.90;;;;;;4976014;28;20475;-82
2022/11/14 11:03:17;;;;;;;0.50;0.20;;;9.70;99.90;;;;;;4975748;29;20423;-80
2022/11/14 11:05:50;;;;;;;0.50;0.20;;;9.80;99.90;;;;;;4976956;28;20427;-82
2022/11/14 11:11:32;;;;;;;0.50;0.10;;;9.90;99.90;;;;;;4957888;28;20562;-80
2022/11/14 11:14:01;;;;;;;0.50;0.10;;;10.00;99.90;;;;;;4967303;29;20510;-80
2022/11/14 11:16:30;;;;;;;3.63;0.73;;;10.20;99.90;;;;;;4967486;28;20991;-81
2022/11/14 11:19:15;;;;;;;0.50;0.10;;;10.20;99.90;;;;;;5068645;23;20498;-77
2022/11/14 11:21:48;;;;;;;0.60;0.10;;;10.30;99.90;;;;;;4946998;29;20460;-78
2022/11/14 11:24:33;;;;;;;0.50;0.10;;;10.40;99.90;;;;;;4938381;29;20482;-78
2022/11/14 11:27:23;;;;;;;0.50;0.10;;;10.60;99.90;;;;;;4937797;29;20479;-79
2022/11/14 11:30:06;;;;;;;0.50;0.30;;;10.60;99.90;;;;;;4940615;29;20500;-77
2022/11/14 11:32:34;;;;;;;0.50;0.10;;;10.70;99.90;;;;;;4949285;29;20869;-80
2022/11/14 11:35:09;;;;;;;1.43;1.23;;;10.80;99.90;;;;;;4946384;29;20475;-79
2022/11/14 11:37:41;;;;;;;0.50;0.20;;;10.80;99.90;;;;;;4945236;29;20493;-78
2022/11/14 11:40:17;;;;;;;0.80;0.50;;;10.80;99.90;;;;;;4957744;29;20455;-77
2022/11/14 11:42:50;;;;;;;0.50;0.10;;;10.80;99.90;;;;;;4956813;29;20466;-78
2022/11/14 11:45:39;;;;;;;1.27;0.43;;;10.80;99.90;;;;;;4949594;29;20482;-78
2022/11/14 11:48:16;;;;;;;0.50;0.10;;;10.90;99.90;;;;;;4955184;29;20478;-77
2022/11/14 11:50:44;;;;;;;1.43;1.33;;;10.90;99.90;;;;;;4954373;29;20803;-78
2022/11/14 11:53:17;;;;;;;0.97;0.67;;;11.00;99.90;;;;;;4955330;29;20454;-78
2022/11/14 11:55:51;;;;;;;0.60;0.10;;;11.10;99.90;;;;;;4956251;29;20486;-78
2022/11/14 11:58:23;;;;;;;0.50;0.10;;;11.10;99.90;;;;;;4956347;29;20479;-77
2022/11/14 12:00:54;;;;;;;0.50;0.10;;;11.10;99.90;;;;;;4953929;29;20477;-77
2022/11/14 12:03:25;;;;;;;0.60;0.10;;;11.10;99.90;;;;;;4944891;29;20446;-78
2022/11/14 12:06:02;;;;;;;0.50;0.10;;;11.10;99.90;;;;;;4937630;29;20534;-78
2022/11/14 12:08:39;;;;;;;0.50;0.10;;;11.10;99.90;;;;;;4950378;29;20474;-79
2022/11/14 12:11:14;;;;;;;0.50;0.10;;;11.20;99.90;;;;;;4951543;29;20497;-78
2022/11/14 12:14:14;;;;;;;0.50;0.20;;;11.20;99.90;;;;;;4956435;29;20481;-78
2022/11/14 12:17:19;;;;;;;0.60;0.30;;;11.20;99.90;;;;;;4955956;29;20989;-79
2022/11/14 12:20:08;;;;;;;0.53;0.10;;;11.20;99.90;;;;;;4957132;29;20473;-78
2022/11/14 12:23:26;;;;;;;0.70;0.70;;;11.30;99.90;;;;;;4943306;29;20444;-77
2022/11/14 12:26:13;;;;;;;0.70;0.67;;;11.30;99.90;;;;;;4872261;29;20449;-78
2022/11/14 12:28:58;;;;;;;0.50;0.10;;;11.40;99.90;;;;;;4956224;29;20801;-77
2022/11/14 12:31:28;;;;;;;0.60;0.10;;;11.50;99.90;;;;;;4955734;29;20446;-80
2022/11/14 12:33:59;;;;;;;0.60;0.10;;;11.50;99.90;;;;;;4945389;29;20515;-78
2022/11/14 12:36:30;;;;;;;0.60;0.10;;;11.50;99.90;;;;;;4947600;29;20478;-77
2022/11/14 12:38:59;;;;;;;0.73;0.73;;;11.50;99.90;;;;;;4956086;29;20475;-78
2022/11/14 12:41:32;;;;;;;0.50;0.10;;;11.50;99.90;;;;;;4955558;29;20443;-78
2022/11/14 12:44:18;;;;;;;0.60;0.10;;;11.50;99.90;;;;;;4953385;29;20792;-79
2022/11/14 12:47:12;;;;;;;0.60;0.10;;;11.50;99.90;;;;;;4944001;29;20466;-78
2022/11/14 12:50:06;;;;;;;0.50;0.10;;;11.50;99.90;;;;;;4943068;29;20453;-78
2022/11/14 12:52:44;;;;;;;0.50;0.10;;;11.40;99.90;;;;;;4954509;29;20942;-78
2022/11/14 12:55:50;;;;;;;0.60;0.10;;;11.40;99.90;;;;;;4955188;29;20459;-78
2022/11/14 12:58:31;;;;;;;0.60;0.20;;;11.40;99.90;;;;;;4944049;29;20462;-78
2022/11/14 13:01:10;;;;;;;0.83;0.83;;;11.40;99.90;;;;;;4943442;29;20451;-77
2022/11/14 13:03:54;;;;;;;0.60;0.10;;;11.30;99.90;;;;;;4955426;28;20453;-78
2022/11/14 13:06:26;;;;;;;0.50;0.10;;;11.30;99.90;;;;;;4955612;29;20450;-77
2022/11/14 13:09:10;;;;;;;0.50;0.10;;;11.40;99.90;;;;;;4947156;29;20456;-78
2022/11/14 13:23:49;;;;;;;0.50;0.10;;;11.40;99.90;;;;;;4946842;29;20493;-78
2022/11/14 13:26:36;;;;;;;0.50;0.10;;;11.30;99.90;;;;;;4954621;29;20443;-78
2022/11/14 13:29:04;;;;;;;0.50;0.10;;;11.30;99.90;;;;;;4955042;29;20467;-78
2022/11/14 13:31:48;;;;;;;0.57;0.10;;;11.30;99.90;;;;;;4954353;29;20869;-78
2022/11/14 13:34:33;;;;;;;1.10;0.67;;;11.30;99.90;;;;;;4946941;29;20446;-79
2022/11/14 13:37:11;;;;;;;0.60;0.30;;;11.20;99.90;;;;;;4954704;28;21028;-77
2022/11/14 13:39:49;;;;;;;0.60;0.30;;;11.20;99.90;;;;;;4954659;29;20454;-78
2022/11/14 13:42:29;;;;;;;0.50;0.10;;;11.20;99.90;;;;;;4955652;29;20420;-77
2022/11/14 13:45:20;;;;;;;0.50;0.10;;;11.20;99.90;;;;;;4948659;29;20871;-78
2022/11/14 13:48:23;;;;;;;0.50;0.10;;;11.20;99.90;;;;;;4940601;29;20488;-77
2022/11/14 13:50:55;;;;;;;0.50;0.20;;;11.10;99.90;;;;;;4954086;29;20460;-78
2022/11/14 13:53:26;;;;;;;0.50;0.10;;;11.00;99.90;;;;;;4958385;29;20455;-78
2022/11/14 13:56:00;;;;;;;0.93;0.40;;;11.00;99.90;;;;;;4942131;29;20471;-78
2022/11/14 13:58:42;;;;;;;0.93;0.83;;;11.00;99.90;;;;;;4952011;29;20530;-78
2022/11/14 14:01:22;;;;;;;0.57;0.10;;;11.00;99.90;;;;;;4955585;29;20458;-78
2022/11/14 14:04:08;;;;;;;0.60;0.20;;;11.00;99.90;;;;;;4958674;29;20793;-77
2022/11/14 14:06:48;;;;;;;0.50;0.10;;;11.00;99.90;;;;;;4957008;29;20466;-78
2022/11/14 14:09:25;;;;;;;0.50;0.10;;;11.00;99.90;;;;;;4955443;29;20548;-77
2022/11/14 14:12:07;;;;;;;0.50;0.10;;;11.00;99.90;;;;;;4944330;29;20452;-78
2022/11/14 14:15:05;;;;;;;0.87;0.87;;;10.90;99.90;;;;;;4956242;29;20985;-78
2022/11/14 14:17:43;;;;;;;0.53;0.10;;;10.90;99.90;;;;;;4950872;29;20573;-77
2022/11/14 14:20:26;;;;;;;0.50;0.10;;;10.90;99.90;;;;;;4953213;29;20452;-78
2022/11/14 14:23:01;;;;;;;0.50;0.10;;;10.90;99.90;;;;;;4944784;29;20491;-77
2022/11/14 14:25:40;;;;;;;0.50;0.10;;;10.90;99.90;;;;;;4937882;29;20447;-77
2022/11/14 14:28:16;;;;;;;0.50;0.10;;;11.00;99.90;;;;;;4942915;29;20459;-79
2022/11/14 14:31:04;;;;;;;0.50;0.10;;;11.00;99.90;;;;;;4949701;29;20513;-77
2022/11/14 14:33:40;;;;;;;1.30;1.20;;;11.00;99.90;;;;;;4957893;29;20867;-77
2022/11/14 14:36:20;;;;;;;0.50;0.10;;;11.10;99.90;;;;;;4961333;29;20443;-77
2022/11/14 14:38:49;;;;;;;0.50;0.10;;;11.00;99.90;;;;;;4956858;29;20490;-77
2022/11/14 14:41:19;;;;;;;0.50;0.10;;;11.00;99.90;;;;;;4956541;29;20501;-77
2022/11/14 14:43:54;;;;;;;0.50;0.10;;;11.10;99.90;;;;;;4955956;29;20506;-77
2022/11/14 14:46:30;;;;;;;0.53;0.10;;;11.10;99.90;;;;;;4955996;28;20446;-77
2022/11/14 14:49:01;;;;;;;0.50;0.10;;;11.20;99.90;;;;;;4961579;29;20486;-78
2022/11/14 14:51:35;;;;;;;0.50;0.10;;;11.20;99.90;;;;;;4964282;29;20466;-78
2022/11/14 14:54:03;;;;;;;0.50;0.10;;;11.20;99.90;;;;;;4964546;29;20451;-78
2022/11/14 14:56:31;;;;;;;0.50;0.10;;;11.20;99.90;;;;;;4958811;29;20483;-78
2022/11/14 14:59:14;;;;;;;5.70;2.33;;;11.30;99.90;;;;;;4954367;29;20467;-78
2022/11/14 15:01:44;;;;;;;0.50;0.10;;;11.30;99.90;;;;;;4962891;28;20453;-78
2022/11/14 15:04:15;;;;;;;0.50;0.10;;;11.30;99.90;;;;;;4963374;28;20938;-77
2022/11/14 15:06:47;;;;;;;0.60;0.30;;;11.30;99.90;;;;;;4962269;29;20454;-78
2022/11/14 15:09:18;;;;;;;0.50;0.10;;;11.30;99.90;;;;;;4960540;29;20997;-77
2022/11/14 15:11:49;;;;;;;0.50;0.10;;;11.30;99.90;;;;;;4950339;29;20507;-77
2022/11/14 15:14:20;;;;;;;0.50;0.10;;;11.30;99.90;;;;;;4944510;29;20563;-79
2022/11/14 15:16:49;;;;;;;0.70;0.30;;;11.30;99.90;;;;;;4942468;29;20526;-77
2022/11/14 15:19:22;;;;;;;0.50;0.10;;;11.30;99.90;;;;;;4943116;29;20479;-77
2022/11/14 15:22:19;;;;;;;0.50;0.10;;;11.30;99.90;;;;;;4957387;29;20447;-79
2022/11/14 15:25:19;;;;;;;0.57;0.10;;;11.30;99.90;;;;;;4951535;29;20447;-77
2022/11/14 15:27:50;;;;;;;0.60;0.10;;;11.30;99.90;;;;;;4943969;29;20978;-77
2022/11/14 15:30:23;;;;;;;0.50;0.10;;;11.30;99.90;;;;;;4971586;29;20949;-78
2022/11/14 15:32:53;;;;;;;0.50;0.10;;;11.40;99.90;;;;;;4965261;29;20946;-77
2022/11/14 15:35:31;;;;;;;0.63;0.53;;;11.30;99.90;;;;;;4946311;29;20524;-77
2022/11/14 15:38:05;;;;;;;0.60;0.43;;;11.30;99.90;;;;;;4944179;29;21003;-78
2022/11/14 15:41:10;;;;;;;0.50;0.10;;;11.30;99.90;;;;;;4958979;29;20489;-77
2022/11/14 15:43:49;;;;;;;0.53;0.10;;;11.30;99.90;;;;;;4961015;29;20470;-77
2022/11/14 15:46:40;;;;;;;0.50;0.10;;;11.40;99.90;;;;;;4964432;29;20805;-79
2022/11/14 15:49:10;;;;;;;0.50;0.10;;;11.40;99.90;;;;;;4967256;29;20894;-78
2022/11/14 15:51:39;;;;;;;0.50;0.10;;;11.40;99.90;;;;;;4961138;29;20961;-77
2022/11/14 15:54:21;;;;;;;0.50;0.10;;;11.40;99.90;;;;;;4964424;29;20450;-79
2022/11/14 15:56:50;;;;;;;0.50;0.10;;;11.40;99.90;;;;;;4964216;29;20769;-78
2022/11/14 15:59:18;;;;;;;0.50;0.10;;;11.40;99.90;;;;;;4964359;28;20470;-79
2022/11/14 16:01:48;;;;;;;0.60;0.10;;;11.40;99.90;;;;;;4964440;29;20579;-78
2022/11/14 16:04:19;;;;;;;0.50;0.10;;;11.40;99.90;;;;;;4963500;29;20514;-78
2022/11/14 16:06:47;;;;;;;0.50;0.10;;;11.50;99.90;;;;;;4963223;29;21004;-78
2022/11/14 16:09:17;;;;;;;0.50;0.10;;;11.50;99.90;;;;;;4962410;29;20475;-78
2022/11/14 16:11:46;;;;;;;0.50;0.10;;;11.50;99.90;;;;;;4947528;29;20499;-78
2022/11/14 16:14:15;;;;;;;0.50;0.10;;;11.50;99.90;;;;;;4939716;29;20904;-78
2022/11/14 16:16:43;;;;;;;0.50;0.10;;;11.50;99.90;;;;;;4941517;29;20452;-78
2022/11/14 16:19:14;;;;;;;0.50;0.10;;;11.50;99.90;;;;;;4953394;29;20494;-78
2022/11/14 16:21:43;;;;;;;0.50;0.10;;;11.50;99.90;;;;;;4962306;29;20463;-78
2022/11/14 16:24:16;;;;;;;0.50;0.10;;;11.50;99.90;;;;;;4962695;29;20443;-78
2022/11/14 16:26:44;;;;;;;0.50;0.10;;;11.50;99.90;;;;;;4964192;29;20530;-79
2022/11/14 16:29:13;;;;;;;0.50;0.10;;;11.50;99.90;;;;;;4937434;29;20464;-78
2022/11/14 16:31:41;;;;;;;0.50;0.10;;;11.50;99.90;;;;;;4943686;29;20483;-76
2022/11/14 16:34:16;;;;;;;0.80;0.80;;;11.50;99.90;;;;;;4935983;29;20443;-76
2022/11/14 16:36:44;;;;;;;6.50;2.40;;;11.50;99.90;;;;;;4936635;29;20444;-75
2022/11/14 16:39:13;;;;;;;0.50;0.10;;;11.50;99.90;;;;;;4936518;29;20498;-76
2022/11/14 16:41:41;;;;;;;0.80;0.73;;;11.50;99.90;;;;;;4936290;29;20953;-75
2022/11/14 16:44:16;;;;;;;0.50;0.10;;;11.50;99.90;;;;;;4939915;29;20864;-76
2022/11/14 16:46:45;;;;;;;0.50;0.10;;;11.60;99.90;;;;;;4955355;29;20967;-75
2022/11/14 16:49:18;;;;;;;0.50;0.10;;;11.60;99.90;;;;;;4955360;29;20978;-76
2022/11/14 16:51:47;;;;;;;0.50;0.10;;;11.60;99.90;;;;;;4955293;29;20454;-76
2022/11/14 16:54:18;;;;;;;0.50;0.10;;;11.60;99.90;;;;;;4955142;29;20451;-75
2022/11/14 16:56:46;;;;;;;0.50;0.10;;;11.50;99.90;;;;;;4955168;29;20486;-75
2022/11/14 16:59:15;;;;;;;0.50;0.10;;;11.50;99.90;;;;;;4955878;28;20483;-75
2022/11/14 17:01:43;;;;;;;0.50;0.10;;;11.60;99.90;;;;;;4952125;29;20459;-75
2022/11/14 17:04:11;;;;;;;0.50;0.10;;;11.50;99.90;;;;;;4943861;29;21020;-75
2022/11/14 17:06:39;;;;;;;0.50;0.10;;;11.50;99.90;;;;;;4949568;29;20452;-75
2022/11/14 17:09:07;;;;;;;0.50;0.10;;;11.50;99.90;;;;;;4949589;29;20542;-75
2022/11/14 17:11:35;;;;;;;0.50;0.10;;;11.50;99.90;;;;;;4955062;28;20447;-76
2022/11/14 17:14:03;;;;;;;0.50;0.10;;;11.50;99.90;;;;;;4955017;29;20462;-76
2022/11/14 17:16:32;;;;;;;0.60;0.20;;;11.50;99.90;;;;;;4949486;29;20934;-76
2022/11/14 17:19:00;;;;;;;0.50;0.10;;;11.50;99.90;;;;;;4956065;29;20491;-77
2022/11/14 17:21:28;;;;;;;0.50;0.10;;;11.50;99.90;;;;;;4956013;29;21009;-76
2022/11/14 17:23:57;;;;;;;0.50;0.10;;;11.50;99.90;;;;;;4955620;29;20554;-76
2022/11/14 17:26:24;;;;;;;0.50;0.10;;;11.50;99.90;;;;;;4953023;29;20460;-75
2022/11/14 17:28:52;;;;;;;0.50;0.10;;;11.60;99.90;;;;;;4956747;29;20802;-78
2022/11/14 17:31:20;;;;;;;0.50;0.10;;;11.60;99.90;;;;;;4958546;29;20439;-77
2022/11/14 17:33:54;;;;;;;0.50;0.10;;;11.50;99.90;;;;;;4953724;29;21029;-78
2022/11/14 17:36:23;;;;;;;0.50;0.10;;;11.50;99.90;;;;;;4949051;29;20483;-77
2022/11/14 17:38:51;;;;;;;0.50;0.10;;;11.60;99.90;;;;;;4954617;29;20514;-78
2022/11/14 17:41:19;;;;;;;13.93;13.10;;;11.60;99.90;;;;;;4954971;29;20860;-77
2022/11/14 17:43:51;;;;;;;0.50;0.10;;;11.10;99.90;;;;;;4952862;28;20459;-77